sensor_id;sensor_type;location;lat;lon;timestamp;P1;durP1;ratioP1;P2;durP2;ratioP2
23119;SDS011;11729;50.836;4.330;2024-02-28T00:02:16;36.35;;;23.20;;
23119;SDS011;11729;50.836;4.330;2024-02-28T00:04:43;30.63;;;21.90;;
23119;SDS011;11729;50.836;4.330;2024-02-28T00:07:09;32.35;;;23.33;;
23119;SDS011;11729;50.836;4.330;2024-02-28T00:09:34;34.08;;;23.83;;
23119;SDS011;11729;50.836;4.330;2024-02-28T00:12:00;28.70;;;22.58;;
23119;SDS011;11729;50.836;4.330;2024-02-28T00:14:26;31.55;;;23.05;;
23119;SDS011;11729;50.836;4.330;2024-02-28T00:16:51;34.15;;;24.20;;
23119;SDS011;11729;50.836;4.330;2024-02-28T00:19:17;40.42;;;24.25;;
23119;SDS011;11729;50.836;4.330;2024-02-28T00:21:45;34.70;;;23.75;;
23119;SDS011;11729;50.836;4.330;2024-02-28T00:24:10;33.72;;;23.20;;
23119;SDS011;11729;50.836;4.330;2024-02-28T00:26:37;35.67;;;23.48;;
23119;SDS011;11729;50.836;4.330;2024-02-28T00:29:06;41.28;;;25.00;;
23119;SDS011;11729;50.836;4.330;2024-02-28T00:31:32;35.65;;;25.27;;
23119;SDS011;11729;50.836;4.330;2024-02-28T00:33:58;37.45;;;25.10;;
23119;SDS011;11729;50.836;4.330;2024-02-28T00:36:24;37.22;;;25.58;;
23119;SDS011;11729;50.836;4.330;2024-02-28T00:38:50;36.78;;;25.92;;
23119;SDS011;11729;50.836;4.330;2024-02-28T00:41:15;37.30;;;26.67;;
23119;SDS011;11729;50.836;4.330;2024-02-28T00:43:41;43.47;;;27.05;;
23119;SDS011;11729;50.836;4.330;2024-02-28T00:46:07;32.72;;;26.38;;
23119;SDS011;11729;50.836;4.330;2024-02-28T00:48:37;37.65;;;25.65;;
23119;SDS011;11729;50.836;4.330;2024-02-28T00:51:03;39.10;;;25.67;;
23119;SDS011;11729;50.836;4.330;2024-02-28T00:53:30;36.72;;;25.83;;
23119;SDS011;11729;50.836;4.330;2024-02-28T00:55:56;37.97;;;25.60;;
23119;SDS011;11729;50.836;4.330;2024-02-28T00:58:22;36.60;;;25.00;;
23119;SDS011;11729;50.836;4.330;2024-02-28T01:00:48;38.58;;;26.33;;
23119;SDS011;11729;50.836;4.330;2024-02-28T01:03:13;39.97;;;26.35;;
23119;SDS011;11729;50.836;4.330;2024-02-28T01:05:40;38.47;;;26.95;;
23119;SDS011;11729;50.836;4.330;2024-02-28T01:08:08;39.22;;;25.83;;
23119;SDS011;11729;50.836;4.330;2024-02-28T01:10:34;42.08;;;26.90;;
23119;SDS011;11729;50.836;4.330;2024-02-28T01:13:00;46.33;;;26.52;;
23119;SDS011;11729;50.836;4.330;2024-02-28T01:15:25;40.90;;;26.33;;
23119;SDS011;11729;50.836;4.330;2024-02-28T01:17:51;38.95;;;25.83;;
23119;SDS011;11729;50.836;4.330;2024-02-28T01:20:18;42.28;;;25.10;;
23119;SDS011;11729;50.836;4.330;2024-02-28T01:22:43;41.20;;;24.80;;
23119;SDS011;11729;50.836;4.330;2024-02-28T01:25:10;34.67;;;25.15;;
23119;SDS011;11729;50.836;4.330;2024-02-28T01:27:36;35.67;;;26.63;;
23119;SDS011;11729;50.836;4.330;2024-02-28T01:30:03;38.08;;;25.58;;
23119;SDS011;11729;50.836;4.330;2024-02-28T01:32:29;34.17;;;25.00;;
23119;SDS011;11729;50.836;4.330;2024-02-28T01:34:55;36.40;;;25.13;;
23119;SDS011;11729;50.836;4.330;2024-02-28T01:37:22;38.58;;;24.77;;
23119;SDS011;11729;50.836;4.330;2024-02-28T01:39:47;33.80;;;25.30;;
23119;SDS011;11729;50.836;4.330;2024-02-28T01:42:13;37.25;;;25.83;;
23119;SDS011;11729;50.836;4.330;2024-02-28T01:44:44;37.53;;;25.70;;
23119;SDS011;11729;50.836;4.330;2024-02-28T01:47:12;39.25;;;24.88;;
23119;SDS011;11729;50.836;4.330;2024-02-28T01:49:38;37.67;;;24.90;;
23119;SDS011;11729;50.836;4.330;2024-02-28T01:52:05;35.75;;;25.10;;
23119;SDS011;11729;50.836;4.330;2024-02-28T01:54:31;36.33;;;25.02;;
23119;SDS011;11729;50.836;4.330;2024-02-28T01:57:00;42.67;;;26.25;;
23119;SDS011;11729;50.836;4.330;2024-02-28T01:59:26;41.13;;;25.02;;
23119;SDS011;11729;50.836;4.330;2024-02-28T02:01:55;41.95;;;26.13;;
23119;SDS011;11729;50.836;4.330;2024-02-28T02:04:24;48.50;;;30.88;;
23119;SDS011;11729;50.836;4.330;2024-02-28T02:06:50;57.85;;;35.58;;
23119;SDS011;11729;50.836;4.330;2024-02-28T02:09:19;60.92;;;39.55;;
23119;SDS011;11729;50.836;4.330;2024-02-28T02:11:45;54.80;;;37.08;;
23119;SDS011;11729;50.836;4.330;2024-02-28T02:14:13;50.83;;;36.10;;
23119;SDS011;11729;50.836;4.330;2024-02-28T02:16:38;55.80;;;35.08;;
23119;SDS011;11729;50.836;4.330;2024-02-28T02:19:07;55.10;;;34.53;;
23119;SDS011;11729;50.836;4.330;2024-02-28T02:21:41;53.75;;;32.08;;
23119;SDS011;11729;50.836;4.330;2024-02-28T02:24:13;44.58;;;29.88;;
23119;SDS011;11729;50.836;4.330;2024-02-28T02:26:40;46.92;;;29.60;;
23119;SDS011;11729;50.836;4.330;2024-02-28T02:29:09;51.08;;;30.10;;
23119;SDS011;11729;50.836;4.330;2024-02-28T02:31:36;44.95;;;29.50;;
23119;SDS011;11729;50.836;4.330;2024-02-28T02:34:02;44.55;;;27.92;;
23119;SDS011;11729;50.836;4.330;2024-02-28T02:36:28;35.83;;;25.98;;
23119;SDS011;11729;50.836;4.330;2024-02-28T02:38:53;39.38;;;25.52;;
23119;SDS011;11729;50.836;4.330;2024-02-28T02:41:19;37.45;;;25.02;;
23119;SDS011;11729;50.836;4.330;2024-02-28T02:43:45;43.13;;;26.40;;
23119;SDS011;11729;50.836;4.330;2024-02-28T02:46:10;37.85;;;27.25;;
23119;SDS011;11729;50.836;4.330;2024-02-28T02:48:36;41.17;;;25.60;;
23119;SDS011;11729;50.836;4.330;2024-02-28T02:51:02;39.97;;;26.02;;
23119;SDS011;11729;50.836;4.330;2024-02-28T02:53:28;44.00;;;25.88;;
23119;SDS011;11729;50.836;4.330;2024-02-28T02:55:53;41.00;;;25.98;;
23119;SDS011;11729;50.836;4.330;2024-02-28T02:58:21;38.90;;;26.02;;
23119;SDS011;11729;50.836;4.330;2024-02-28T03:00:47;40.85;;;26.55;;
23119;SDS011;11729;50.836;4.330;2024-02-28T03:03:13;45.45;;;26.42;;
23119;SDS011;11729;50.836;4.330;2024-02-28T03:05:42;43.05;;;26.10;;
23119;SDS011;11729;50.836;4.330;2024-02-28T03:08:07;37.38;;;25.33;;
23119;SDS011;11729;50.836;4.330;2024-02-28T03:10:34;36.15;;;25.27;;
23119;SDS011;11729;50.836;4.330;2024-02-28T03:13:00;42.97;;;26.63;;
23119;SDS011;11729;50.836;4.330;2024-02-28T03:15:26;42.72;;;25.92;;
23119;SDS011;11729;50.836;4.330;2024-02-28T03:17:52;40.17;;;26.23;;
23119;SDS011;11729;50.836;4.330;2024-02-28T03:20:21;43.47;;;25.23;;
23119;SDS011;11729;50.836;4.330;2024-02-28T03:22:46;42.70;;;25.52;;
23119;SDS011;11729;50.836;4.330;2024-02-28T03:25:13;41.65;;;26.77;;
23119;SDS011;11729;50.836;4.330;2024-02-28T03:27:39;36.30;;;25.20;;
23119;SDS011;11729;50.836;4.330;2024-02-28T03:30:06;44.58;;;25.95;;
23119;SDS011;11729;50.836;4.330;2024-02-28T03:32:33;42.67;;;26.15;;
23119;SDS011;11729;50.836;4.330;2024-02-28T03:34:59;40.63;;;26.08;;
23119;SDS011;11729;50.836;4.330;2024-02-28T03:37:25;47.72;;;27.38;;
23119;SDS011;11729;50.836;4.330;2024-02-28T03:39:53;36.70;;;25.50;;
23119;SDS011;11729;50.836;4.330;2024-02-28T03:42:19;42.75;;;26.15;;
23119;SDS011;11729;50.836;4.330;2024-02-28T03:44:44;45.20;;;26.73;;
23119;SDS011;11729;50.836;4.330;2024-02-28T03:47:11;40.88;;;26.63;;
23119;SDS011;11729;50.836;4.330;2024-02-28T03:49:37;44.33;;;26.23;;
23119;SDS011;11729;50.836;4.330;2024-02-28T03:52:03;40.72;;;26.63;;
23119;SDS011;11729;50.836;4.330;2024-02-28T03:54:31;47.40;;;27.67;;
23119;SDS011;11729;50.836;4.330;2024-02-28T03:56:57;41.97;;;25.92;;
23119;SDS011;11729;50.836;4.330;2024-02-28T03:59:23;42.58;;;27.15;;
23119;SDS011;11729;50.836;4.330;2024-02-28T04:01:49;46.35;;;27.92;;
23119;SDS011;11729;50.836;4.330;2024-02-28T04:04:15;42.42;;;26.75;;
23119;SDS011;11729;50.836;4.330;2024-02-28T04:06:41;52.03;;;27.42;;
23119;SDS011;11729;50.836;4.330;2024-02-28T04:09:07;44.58;;;27.13;;
23119;SDS011;11729;50.836;4.330;2024-02-28T04:11:33;47.85;;;27.70;;
23119;SDS011;11729;50.836;4.330;2024-02-28T04:13:59;44.42;;;26.35;;
23119;SDS011;11729;50.836;4.330;2024-02-28T04:16:24;45.20;;;26.60;;
23119;SDS011;11729;50.836;4.330;2024-02-28T04:18:50;42.83;;;26.95;;
23119;SDS011;11729;50.836;4.330;2024-02-28T04:21:16;40.03;;;26.35;;
23119;SDS011;11729;50.836;4.330;2024-02-28T04:23:42;44.40;;;26.02;;
23119;SDS011;11729;50.836;4.330;2024-02-28T04:26:09;45.55;;;26.90;;
23119;SDS011;11729;50.836;4.330;2024-02-28T04:28:35;42.55;;;26.15;;
23119;SDS011;11729;50.836;4.330;2024-02-28T04:31:01;44.65;;;26.75;;
23119;SDS011;11729;50.836;4.330;2024-02-28T04:33:27;50.28;;;27.73;;
23119;SDS011;11729;50.836;4.330;2024-02-28T04:35:53;48.90;;;26.95;;
23119;SDS011;11729;50.836;4.330;2024-02-28T04:38:18;48.10;;;26.73;;
23119;SDS011;11729;50.836;4.330;2024-02-28T04:40:44;46.63;;;26.67;;
23119;SDS011;11729;50.836;4.330;2024-02-28T04:43:11;46.83;;;26.65;;
23119;SDS011;11729;50.836;4.330;2024-02-28T04:45:37;48.92;;;26.77;;
23119;SDS011;11729;50.836;4.330;2024-02-28T04:48:03;48.45;;;26.23;;
23119;SDS011;11729;50.836;4.330;2024-02-28T04:50:29;43.35;;;26.40;;
23119;SDS011;11729;50.836;4.330;2024-02-28T04:52:56;45.92;;;27.27;;
23119;SDS011;11729;50.836;4.330;2024-02-28T04:55:21;40.13;;;26.00;;
23119;SDS011;11729;50.836;4.330;2024-02-28T04:57:47;44.67;;;25.80;;
23119;SDS011;11729;50.836;4.330;2024-02-28T05:00:12;47.20;;;27.20;;
23119;SDS011;11729;50.836;4.330;2024-02-28T05:02:38;43.15;;;25.27;;
23119;SDS011;11729;50.836;4.330;2024-02-28T05:05:05;48.42;;;26.67;;
23119;SDS011;11729;50.836;4.330;2024-02-28T05:07:31;42.15;;;25.85;;
23119;SDS011;11729;50.836;4.330;2024-02-28T05:09:57;43.53;;;26.35;;
23119;SDS011;11729;50.836;4.330;2024-02-28T05:12:22;50.53;;;27.75;;
23119;SDS011;11729;50.836;4.330;2024-02-28T05:14:48;46.58;;;27.25;;
23119;SDS011;11729;50.836;4.330;2024-02-28T05:17:13;48.05;;;28.38;;
23119;SDS011;11729;50.836;4.330;2024-02-28T05:19:39;46.42;;;26.48;;
23119;SDS011;11729;50.836;4.330;2024-02-28T05:22:06;43.97;;;26.42;;
23119;SDS011;11729;50.836;4.330;2024-02-28T05:24:32;45.22;;;27.00;;
23119;SDS011;11729;50.836;4.330;2024-02-28T05:27:00;52.00;;;28.88;;
23119;SDS011;11729;50.836;4.330;2024-02-28T05:29:25;46.60;;;27.23;;
23119;SDS011;11729;50.836;4.330;2024-02-28T05:31:52;42.97;;;26.65;;
23119;SDS011;11729;50.836;4.330;2024-02-28T05:34:18;43.58;;;27.65;;
23119;SDS011;11729;50.836;4.330;2024-02-28T05:36:44;46.75;;;28.15;;
23119;SDS011;11729;50.836;4.330;2024-02-28T05:39:09;43.80;;;27.45;;
23119;SDS011;11729;50.836;4.330;2024-02-28T05:41:35;43.83;;;26.83;;
23119;SDS011;11729;50.836;4.330;2024-02-28T05:44:00;42.78;;;27.05;;
23119;SDS011;11729;50.836;4.330;2024-02-28T05:46:26;44.47;;;25.90;;
23119;SDS011;11729;50.836;4.330;2024-02-28T05:48:52;39.90;;;26.30;;
23119;SDS011;11729;50.836;4.330;2024-02-28T05:51:17;38.55;;;26.30;;
23119;SDS011;11729;50.836;4.330;2024-02-28T05:53:44;44.40;;;26.23;;
23119;SDS011;11729;50.836;4.330;2024-02-28T05:56:10;42.88;;;25.23;;
23119;SDS011;11729;50.836;4.330;2024-02-28T05:58:42;42.22;;;26.33;;
23119;SDS011;11729;50.836;4.330;2024-02-28T06:01:10;43.72;;;25.40;;
23119;SDS011;11729;50.836;4.330;2024-02-28T06:03:36;40.88;;;24.88;;
23119;SDS011;11729;50.836;4.330;2024-02-28T06:06:03;46.22;;;26.45;;
23119;SDS011;11729;50.836;4.330;2024-02-28T06:08:37;46.78;;;25.85;;
23119;SDS011;11729;50.836;4.330;2024-02-28T06:11:03;38.40;;;24.83;;
23119;SDS011;11729;50.836;4.330;2024-02-28T06:13:30;42.03;;;25.33;;
23119;SDS011;11729;50.836;4.330;2024-02-28T06:15:56;38.30;;;24.33;;
23119;SDS011;11729;50.836;4.330;2024-02-28T06:18:22;43.33;;;25.77;;
23119;SDS011;11729;50.836;4.330;2024-02-28T06:20:51;41.42;;;25.60;;
23119;SDS011;11729;50.836;4.330;2024-02-28T06:23:22;42.83;;;26.08;;
23119;SDS011;11729;50.836;4.330;2024-02-28T06:25:49;42.47;;;25.20;;
23119;SDS011;11729;50.836;4.330;2024-02-28T06:28:15;39.45;;;24.40;;
23119;SDS011;11729;50.836;4.330;2024-02-28T06:30:44;44.75;;;25.35;;
23119;SDS011;11729;50.836;4.330;2024-02-28T06:33:11;45.65;;;25.30;;
23119;SDS011;11729;50.836;4.330;2024-02-28T06:35:40;40.08;;;25.05;;
23119;SDS011;11729;50.836;4.330;2024-02-28T06:38:06;47.92;;;25.05;;
23119;SDS011;11729;50.836;4.330;2024-02-28T06:40:32;42.28;;;23.13;;
23119;SDS011;11729;50.836;4.330;2024-02-28T06:42:58;48.85;;;25.98;;
23119;SDS011;11729;50.836;4.330;2024-02-28T06:45:24;43.88;;;24.13;;
23119;SDS011;11729;50.836;4.330;2024-02-28T06:47:50;37.17;;;23.42;;
23119;SDS011;11729;50.836;4.330;2024-02-28T06:50:16;44.30;;;24.42;;
23119;SDS011;11729;50.836;4.330;2024-02-28T06:52:44;38.83;;;23.25;;
23119;SDS011;11729;50.836;4.330;2024-02-28T06:55:09;37.45;;;22.92;;
23119;SDS011;11729;50.836;4.330;2024-02-28T06:57:39;35.92;;;21.98;;
23119;SDS011;11729;50.836;4.330;2024-02-28T07:00:06;31.58;;;21.80;;
23119;SDS011;11729;50.836;4.330;2024-02-28T07:02:36;36.85;;;22.77;;
23119;SDS011;11729;50.836;4.330;2024-02-28T07:05:02;34.42;;;21.02;;
23119;SDS011;11729;50.836;4.330;2024-02-28T07:07:33;35.42;;;21.45;;
23119;SDS011;11729;50.836;4.330;2024-02-28T07:09:59;34.35;;;20.08;;
23119;SDS011;11729;50.836;4.330;2024-02-28T07:12:24;33.95;;;20.70;;
23119;SDS011;11729;50.836;4.330;2024-02-28T07:14:52;28.67;;;19.58;;
23119;SDS011;11729;50.836;4.330;2024-02-28T07:17:17;40.63;;;20.83;;
23119;SDS011;11729;50.836;4.330;2024-02-28T07:19:44;37.38;;;20.38;;
23119;SDS011;11729;50.836;4.330;2024-02-28T07:22:10;33.67;;;19.35;;
23119;SDS011;11729;50.836;4.330;2024-02-28T07:24:37;30.58;;;18.85;;
23119;SDS011;11729;50.836;4.330;2024-02-28T07:27:02;29.42;;;19.10;;
23119;SDS011;11729;50.836;4.330;2024-02-28T07:29:29;38.88;;;20.55;;
23119;SDS011;11729;50.836;4.330;2024-02-28T07:31:55;35.83;;;19.35;;
23119;SDS011;11729;50.836;4.330;2024-02-28T07:34:22;33.38;;;20.27;;
23119;SDS011;11729;50.836;4.330;2024-02-28T07:36:47;36.30;;;20.27;;
23119;SDS011;11729;50.836;4.330;2024-02-28T07:39:13;29.60;;;19.60;;
23119;SDS011;11729;50.836;4.330;2024-02-28T07:41:39;31.55;;;19.48;;
23119;SDS011;11729;50.836;4.330;2024-02-28T07:44:06;27.87;;;18.00;;
23119;SDS011;11729;50.836;4.330;2024-02-28T07:46:35;29.35;;;17.30;;
23119;SDS011;11729;50.836;4.330;2024-02-28T07:49:01;30.77;;;17.35;;
23119;SDS011;11729;50.836;4.330;2024-02-28T07:51:27;31.00;;;17.55;;
23119;SDS011;11729;50.836;4.330;2024-02-28T07:53:53;32.90;;;17.55;;
23119;SDS011;11729;50.836;4.330;2024-02-28T07:56:19;32.67;;;17.80;;
23119;SDS011;11729;50.836;4.330;2024-02-28T07:58:46;33.95;;;18.45;;
23119;SDS011;11729;50.836;4.330;2024-02-28T08:01:12;29.05;;;17.38;;
23119;SDS011;11729;50.836;4.330;2024-02-28T08:03:38;31.55;;;17.95;;
23119;SDS011;11729;50.836;4.330;2024-02-28T08:06:07;31.80;;;17.73;;
23119;SDS011;11729;50.836;4.330;2024-02-28T08:11:01;24.95;;;16.95;;
23119;SDS011;11729;50.836;4.330;2024-02-28T08:13:29;29.52;;;18.23;;
23119;SDS011;11729;50.836;4.330;2024-02-28T08:15:56;32.15;;;19.00;;
23119;SDS011;11729;50.836;4.330;2024-02-28T08:18:23;28.65;;;18.63;;
23119;SDS011;11729;50.836;4.330;2024-02-28T08:20:51;29.48;;;19.10;;
23119;SDS011;11729;50.836;4.330;2024-02-28T08:23:18;32.63;;;20.33;;
23119;SDS011;11729;50.836;4.330;2024-02-28T08:25:44;35.03;;;19.02;;
23119;SDS011;11729;50.836;4.330;2024-02-28T08:28:09;37.15;;;18.05;;
23119;SDS011;11729;50.836;4.330;2024-02-28T08:30:35;34.90;;;19.38;;
23119;SDS011;11729;50.836;4.330;2024-02-28T08:33:01;37.45;;;20.27;;
23119;SDS011;11729;50.836;4.330;2024-02-28T08:35:26;34.97;;;18.83;;
23119;SDS011;11729;50.836;4.330;2024-02-28T08:37:54;29.70;;;19.17;;
23119;SDS011;11729;50.836;4.330;2024-02-28T08:40:21;31.13;;;18.13;;
23119;SDS011;11729;50.836;4.330;2024-02-28T08:42:47;34.70;;;16.98;;
23119;SDS011;11729;50.836;4.330;2024-02-28T08:45:14;25.23;;;17.05;;
23119;SDS011;11729;50.836;4.330;2024-02-28T08:47:40;31.25;;;17.60;;
23119;SDS011;11729;50.836;4.330;2024-02-28T08:50:06;30.52;;;17.17;;
23119;SDS011;11729;50.836;4.330;2024-02-28T08:52:32;29.83;;;17.42;;
23119;SDS011;11729;50.836;4.330;2024-02-28T08:54:58;31.27;;;17.33;;
23119;SDS011;11729;50.836;4.330;2024-02-28T08:57:23;33.78;;;18.08;;
23119;SDS011;11729;50.836;4.330;2024-02-28T08:59:50;33.00;;;19.13;;
23119;SDS011;11729;50.836;4.330;2024-02-28T09:02:15;34.80;;;18.52;;
23119;SDS011;11729;50.836;4.330;2024-02-28T09:04:42;39.75;;;19.83;;
23119;SDS011;11729;50.836;4.330;2024-02-28T09:07:08;32.70;;;17.90;;
23119;SDS011;11729;50.836;4.330;2024-02-28T09:09:34;35.55;;;18.83;;
23119;SDS011;11729;50.836;4.330;2024-02-28T09:12:05;33.88;;;17.55;;
23119;SDS011;11729;50.836;4.330;2024-02-28T09:14:30;30.55;;;17.65;;
23119;SDS011;11729;50.836;4.330;2024-02-28T09:16:56;28.30;;;17.15;;
23119;SDS011;11729;50.836;4.330;2024-02-28T09:19:29;37.95;;;18.60;;
23119;SDS011;11729;50.836;4.330;2024-02-28T09:21:54;35.78;;;18.75;;
23119;SDS011;11729;50.836;4.330;2024-02-28T09:24:20;35.47;;;19.35;;
23119;SDS011;11729;50.836;4.330;2024-02-28T09:26:47;36.20;;;18.67;;
23119;SDS011;11729;50.836;4.330;2024-02-28T09:29:12;30.50;;;18.00;;
23119;SDS011;11729;50.836;4.330;2024-02-28T09:31:38;29.83;;;17.73;;
23119;SDS011;11729;50.836;4.330;2024-02-28T09:34:03;33.95;;;18.30;;
23119;SDS011;11729;50.836;4.330;2024-02-28T09:36:43;37.35;;;19.40;;
23119;SDS011;11729;50.836;4.330;2024-02-28T09:39:13;35.92;;;19.88;;
23119;SDS011;11729;50.836;4.330;2024-02-28T09:41:42;35.22;;;20.25;;
23119;SDS011;11729;50.836;4.330;2024-02-28T09:44:07;38.97;;;19.20;;
23119;SDS011;11729;50.836;4.330;2024-02-28T09:46:34;37.65;;;19.63;;
23119;SDS011;11729;50.836;4.330;2024-02-28T09:49:06;32.63;;;18.33;;
23119;SDS011;11729;50.836;4.330;2024-02-28T09:51:33;35.58;;;19.58;;
23119;SDS011;11729;50.836;4.330;2024-02-28T09:54:05;34.40;;;19.83;;
23119;SDS011;11729;50.836;4.330;2024-02-28T09:56:31;35.15;;;20.35;;
23119;SDS011;11729;50.836;4.330;2024-02-28T09:58:57;39.67;;;20.45;;
23119;SDS011;11729;50.836;4.330;2024-02-28T10:01:25;32.58;;;19.23;;
23119;SDS011;11729;50.836;4.330;2024-02-28T10:03:51;34.33;;;19.30;;
23119;SDS011;11729;50.836;4.330;2024-02-28T10:06:19;44.90;;;20.00;;
23119;SDS011;11729;50.836;4.330;2024-02-28T10:08:45;39.50;;;19.90;;
23119;SDS011;11729;50.836;4.330;2024-02-28T10:11:17;36.20;;;19.10;;
23119;SDS011;11729;50.836;4.330;2024-02-28T10:13:45;44.00;;;20.70;;
23119;SDS011;11729;50.836;4.330;2024-02-28T10:16:14;46.75;;;20.55;;
23119;SDS011;11729;50.836;4.330;2024-02-28T10:18:43;31.35;;;19.23;;
23119;SDS011;11729;50.836;4.330;2024-02-28T10:21:09;28.38;;;16.88;;
23119;SDS011;11729;50.836;4.330;2024-02-28T10:23:37;27.15;;;16.77;;
23119;SDS011;11729;50.836;4.330;2024-02-28T10:26:04;28.83;;;16.88;;
23119;SDS011;11729;50.836;4.330;2024-02-28T10:28:29;28.33;;;16.70;;
23119;SDS011;11729;50.836;4.330;2024-02-28T10:30:55;27.38;;;16.30;;
23119;SDS011;11729;50.836;4.330;2024-02-28T10:33:21;24.88;;;15.82;;
23119;SDS011;11729;50.836;4.330;2024-02-28T10:35:53;24.42;;;16.10;;
23119;SDS011;11729;50.836;4.330;2024-02-28T10:38:19;24.05;;;14.80;;
23119;SDS011;11729;50.836;4.330;2024-02-28T10:40:48;23.35;;;15.45;;
23119;SDS011;11729;50.836;4.330;2024-02-28T10:43:14;27.85;;;15.57;;
23119;SDS011;11729;50.836;4.330;2024-02-28T10:45:42;21.90;;;15.55;;
23119;SDS011;11729;50.836;4.330;2024-02-28T10:48:08;24.25;;;14.98;;
23119;SDS011;11729;50.836;4.330;2024-02-28T10:50:35;23.75;;;15.38;;
23119;SDS011;11729;50.836;4.330;2024-02-28T10:53:04;22.83;;;16.27;;
23119;SDS011;11729;50.836;4.330;2024-02-28T10:55:39;21.13;;;14.57;;
23119;SDS011;11729;50.836;4.330;2024-02-28T10:58:06;19.83;;;15.77;;
23119;SDS011;11729;50.836;4.330;2024-02-28T11:00:36;22.58;;;14.80;;
23119;SDS011;11729;50.836;4.330;2024-02-28T11:03:06;26.55;;;14.25;;
23119;SDS011;11729;50.836;4.330;2024-02-28T11:08:09;17.27;;;12.90;;
23119;SDS011;11729;50.836;4.330;2024-02-28T11:10:36;18.65;;;12.70;;
23119;SDS011;11729;50.836;4.330;2024-02-28T11:13:08;18.50;;;12.40;;
23119;SDS011;11729;50.836;4.330;2024-02-28T11:15:36;15.88;;;11.38;;
23119;SDS011;11729;50.836;4.330;2024-02-28T11:18:11;16.30;;;11.27;;
23119;SDS011;11729;50.836;4.330;2024-02-28T11:20:38;14.48;;;10.52;;
23119;SDS011;11729;50.836;4.330;2024-02-28T11:23:07;16.05;;;10.63;;
23119;SDS011;11729;50.836;4.330;2024-02-28T11:25:34;20.08;;;10.35;;
23119;SDS011;11729;50.836;4.330;2024-02-28T11:28:00;13.50;;;9.80;;
23119;SDS011;11729;50.836;4.330;2024-02-28T11:30:26;15.63;;;9.45;;
23119;SDS011;11729;50.836;4.330;2024-02-28T11:32:54;10.35;;;8.57;;
23119;SDS011;11729;50.836;4.330;2024-02-28T11:35:23;13.52;;;9.23;;
23119;SDS011;11729;50.836;4.330;2024-02-28T11:37:49;14.82;;;9.15;;
23119;SDS011;11729;50.836;4.330;2024-02-28T11:40:16;13.55;;;9.43;;
23119;SDS011;11729;50.836;4.330;2024-02-28T11:42:42;13.05;;;9.70;;
23119;SDS011;11729;50.836;4.330;2024-02-28T11:45:10;13.95;;;9.27;;
23119;SDS011;11729;50.836;4.330;2024-02-28T11:47:36;11.27;;;8.88;;
23119;SDS011;11729;50.836;4.330;2024-02-28T11:50:02;11.32;;;8.80;;
23119;SDS011;11729;50.836;4.330;2024-02-28T11:52:31;10.55;;;8.00;;
23119;SDS011;11729;50.836;4.330;2024-02-28T11:54:57;13.07;;;8.93;;
23119;SDS011;11729;50.836;4.330;2024-02-28T11:57:22;10.07;;;8.52;;
23119;SDS011;11729;50.836;4.330;2024-02-28T11:59:48;13.30;;;10.30;;
23119;SDS011;11729;50.836;4.330;2024-02-28T12:02:14;14.98;;;9.88;;
23119;SDS011;11729;50.836;4.330;2024-02-28T12:04:42;11.60;;;9.07;;
23119;SDS011;11729;50.836;4.330;2024-02-28T12:07:08;10.73;;;9.20;;
23119;SDS011;11729;50.836;4.330;2024-02-28T12:09:34;13.77;;;8.68;;
23119;SDS011;11729;50.836;4.330;2024-02-28T12:12:01;18.55;;;9.52;;
23119;SDS011;11729;50.836;4.330;2024-02-28T12:14:35;15.45;;;8.90;;
23119;SDS011;11729;50.836;4.330;2024-02-28T12:17:04;14.98;;;8.40;;
23119;SDS011;11729;50.836;4.330;2024-02-28T12:19:30;10.13;;;8.55;;
23119;SDS011;11729;50.836;4.330;2024-02-28T12:21:56;12.93;;;8.93;;
23119;SDS011;11729;50.836;4.330;2024-02-28T12:24:22;16.88;;;9.32;;
23119;SDS011;11729;50.836;4.330;2024-02-28T12:26:48;12.90;;;8.15;;
23119;SDS011;11729;50.836;4.330;2024-02-28T12:29:13;14.85;;;9.05;;
23119;SDS011;11729;50.836;4.330;2024-02-28T12:31:40;10.38;;;8.50;;
23119;SDS011;11729;50.836;4.330;2024-02-28T12:34:06;9.90;;;8.85;;
23119;SDS011;11729;50.836;4.330;2024-02-28T12:36:32;10.80;;;8.65;;
23119;SDS011;11729;50.836;4.330;2024-02-28T12:38:58;14.50;;;8.32;;
23119;SDS011;11729;50.836;4.330;2024-02-28T12:41:25;15.45;;;8.98;;
23119;SDS011;11729;50.836;4.330;2024-02-28T12:43:53;11.90;;;9.20;;
23119;SDS011;11729;50.836;4.330;2024-02-28T12:46:20;13.15;;;9.07;;
23119;SDS011;11729;50.836;4.330;2024-02-28T12:48:46;13.00;;;8.65;;
23119;SDS011;11729;50.836;4.330;2024-02-28T12:51:57;9.60;;;8.60;;
23119;SDS011;11729;50.836;4.330;2024-02-28T12:54:01;11.85;;;8.30;;
23119;SDS011;11729;50.836;4.330;2024-02-28T12:56:27;9.57;;;8.52;;
23119;SDS011;11729;50.836;4.330;2024-02-28T12:58:53;15.50;;;9.50;;
23119;SDS011;11729;50.836;4.330;2024-02-28T13:01:19;13.45;;;9.13;;
23119;SDS011;11729;50.836;4.330;2024-02-28T13:03:44;12.20;;;8.88;;
23119;SDS011;11729;50.836;4.330;2024-02-28T13:06:11;18.95;;;10.10;;
23119;SDS011;11729;50.836;4.330;2024-02-28T13:08:37;10.18;;;9.10;;
23119;SDS011;11729;50.836;4.330;2024-02-28T13:11:02;12.02;;;9.65;;
23119;SDS011;11729;50.836;4.330;2024-02-28T13:13:28;11.40;;;9.43;;
23119;SDS011;11729;50.836;4.330;2024-02-28T13:15:54;13.25;;;9.73;;
23119;SDS011;11729;50.836;4.330;2024-02-28T13:18:21;12.18;;;9.70;;
23119;SDS011;11729;50.836;4.330;2024-02-28T13:20:46;12.45;;;9.23;;
23119;SDS011;11729;50.836;4.330;2024-02-28T13:23:12;13.50;;;11.02;;
23119;SDS011;11729;50.836;4.330;2024-02-28T13:25:37;12.77;;;10.55;;
23119;SDS011;11729;50.836;4.330;2024-02-28T13:28:03;12.43;;;8.82;;
23119;SDS011;11729;50.836;4.330;2024-02-28T13:30:29;13.82;;;8.75;;
23119;SDS011;11729;50.836;4.330;2024-02-28T13:32:55;8.85;;;8.02;;
23119;SDS011;11729;50.836;4.330;2024-02-28T13:35:20;10.10;;;8.57;;
23119;SDS011;11729;50.836;4.330;2024-02-28T13:37:47;10.18;;;8.68;;
23119;SDS011;11729;50.836;4.330;2024-02-28T13:40:13;11.27;;;8.90;;
23119;SDS011;11729;50.836;4.330;2024-02-28T13:42:39;14.20;;;8.40;;
23119;SDS011;11729;50.836;4.330;2024-02-28T13:45:04;14.50;;;8.55;;
23119;SDS011;11729;50.836;4.330;2024-02-28T13:47:32;11.90;;;9.00;;
23119;SDS011;11729;50.836;4.330;2024-02-28T13:49:59;13.32;;;9.07;;
23119;SDS011;11729;50.836;4.330;2024-02-28T13:52:25;15.45;;;10.65;;
23119;SDS011;11729;50.836;4.330;2024-02-28T13:54:51;11.75;;;9.68;;
23119;SDS011;11729;50.836;4.330;2024-02-28T13:57:18;13.25;;;9.30;;
23119;SDS011;11729;50.836;4.330;2024-02-28T13:59:43;11.85;;;9.00;;
23119;SDS011;11729;50.836;4.330;2024-02-28T14:02:14;10.93;;;8.07;;
23119;SDS011;11729;50.836;4.330;2024-02-28T14:04:40;10.15;;;8.40;;
23119;SDS011;11729;50.836;4.330;2024-02-28T14:07:09;11.95;;;8.55;;
23119;SDS011;11729;50.836;4.330;2024-02-28T14:09:34;9.90;;;8.90;;
23119;SDS011;11729;50.836;4.330;2024-02-28T14:12:00;13.45;;;8.80;;
23119;SDS011;11729;50.836;4.330;2024-02-28T14:14:26;11.60;;;8.43;;
23119;SDS011;11729;50.836;4.330;2024-02-28T14:16:52;9.43;;;8.45;;
23119;SDS011;11729;50.836;4.330;2024-02-28T14:19:18;11.35;;;8.63;;
23119;SDS011;11729;50.836;4.330;2024-02-28T14:21:43;14.07;;;8.27;;
23119;SDS011;11729;50.836;4.330;2024-02-28T14:24:09;10.43;;;8.88;;
23119;SDS011;11729;50.836;4.330;2024-02-28T14:26:35;10.65;;;8.95;;